createdAt,value
2019-01-23T00:04:53.086Z,21.70
2019-01-23T00:09:56.800Z,20.70
2019-01-23T00:15:00.505Z,21.63
2019-01-23T00:20:04.840Z,21.60
2019-01-23T00:25:08.664Z,21.43
2019-01-23T00:30:12.636Z,21.37
2019-01-23T00:35:16.363Z,21.97
2019-01-23T00:40:20.049Z,22.33
2019-01-23T00:45:23.697Z,21.43
2019-01-23T00:50:27.372Z,22.10
2019-01-23T00:55:31.182Z,22.50
2019-01-23T01:00:35.170Z,21.30
2019-01-23T01:05:38.948Z,21.27
2019-01-23T01:10:42.700Z,21.90
2019-01-23T01:15:46.409Z,22.10
2019-01-23T01:20:50.478Z,22.30
2019-01-23T01:25:54.465Z,21.90
2019-01-23T01:30:58.185Z,20.93
2019-01-23T01:36:01.896Z,22.50
2019-01-23T01:41:05.760Z,23.17
2019-01-23T01:46:09.464Z,22.80
2019-01-23T01:51:14.882Z,22.03
2019-01-23T01:56:18.544Z,20.80
2019-01-23T02:01:22.220Z,23.77
2019-01-23T02:06:25.859Z,22.83
2019-01-23T02:11:29.562Z,22.23
2019-01-23T02:16:33.266Z,20.83
2019-01-23T02:21:36.943Z,23.20
2019-01-23T02:26:40.622Z,23.13
2019-01-23T02:31:44.353Z,21.80
2019-01-23T02:36:51.120Z,22.07
2019-01-23T02:41:54.774Z,22.00
2019-01-23T02:46:58.582Z,21.00
2019-01-23T02:52:02.314Z,21.60
2019-01-23T02:57:06.032Z,23.03
2019-01-23T03:02:09.884Z,22.53
2019-01-23T03:07:13.745Z,22.90
2019-01-23T03:12:17.477Z,24.37
2019-01-23T03:17:21.157Z,24.10
2019-01-23T03:22:24.860Z,25.37
2019-01-23T03:27:28.563Z,25.20
2019-01-23T03:32:32.347Z,26.30
2019-01-23T03:37:36.114Z,23.30
2019-01-23T03:42:39.932Z,24.80
2019-01-23T03:47:43.628Z,24.00
2019-01-23T03:52:47.376Z,24.60
2019-01-23T03:57:51.030Z,24.97
2019-01-23T04:02:54.872Z,26.57
2019-01-23T04:07:58.543Z,26.63
2019-01-23T04:13:02.592Z,26.60
2019-01-23T04:18:06.312Z,28.73
2019-01-23T04:23:10.205Z,28.00
2019-01-23T04:28:13.987Z,27.03
2019-01-23T04:33:17.677Z,27.80
2019-01-23T04:38:21.431Z,29.37
2019-01-23T04:43:25.153Z,28.90
2019-01-23T04:48:28.811Z,27.73
2019-01-23T04:53:36.710Z,27.70
2019-01-23T04:58:40.533Z,26.60
2019-01-23T05:03:44.255Z,26.07
2019-01-23T05:08:48.327Z,25.87
2019-01-23T05:13:52.055Z,26.43
2019-01-23T05:18:55.735Z,26.97
2019-01-23T05:23:59.540Z,27.80
2019-01-23T05:29:03.267Z,26.37
2019-01-23T05:34:07.083Z,26.07
2019-01-23T05:39:10.857Z,27.30
2019-01-23T05:44:14.627Z,25.50
2019-01-23T05:49:18.376Z,29.43
2019-01-23T05:54:22.329Z,26.60
2019-01-23T05:59:26.039Z,28.73
2019-01-23T06:04:29.938Z,29.50
2019-01-23T06:09:33.741Z,31.73
2019-01-23T06:14:37.567Z,31.20
2019-01-23T06:19:41.555Z,33.03
2019-01-23T06:24:45.445Z,35.63
2019-01-23T06:29:49.650Z,37.03
2019-01-23T06:34:53.443Z,41.23
2019-01-23T06:39:57.306Z,46.87
2019-01-23T06:45:01.119Z,47.30
2019-01-23T06:50:06.555Z,44.97
2019-01-23T06:55:10.815Z,47.17
2019-01-23T07:00:22.721Z,45.67
2019-01-23T07:05:26.604Z,44.57
2019-01-23T07:10:32.650Z,41.57
2019-01-23T07:15:36.800Z,39.53
2019-01-23T07:20:40.596Z,38.63
2019-01-23T07:25:44.344Z,37.57
2019-01-23T07:30:48.068Z,36.80
2019-01-23T07:35:51.809Z,38.83
2019-01-23T07:40:55.724Z,37.57
2019-01-23T07:45:59.816Z,40.00
2019-01-23T07:51:03.634Z,41.20
2019-01-23T07:56:26.714Z,39.87
2019-01-23T08:01:30.726Z,39.80
2019-01-23T08:06:34.493Z,35.63
2019-01-23T08:11:38.324Z,35.40
2019-01-23T08:16:42.348Z,33.03
2019-01-23T08:21:46.166Z,34.90
2019-01-23T08:26:50.031Z,36.77
2019-01-23T08:31:53.773Z,37.20
2019-01-23T08:36:57.659Z,39.10
2019-01-23T08:42:01.455Z,41.67
2019-01-23T08:47:05.193Z,44.13
2019-01-23T08:52:09.083Z,43.10
2019-01-23T08:57:12.938Z,43.77
2019-01-23T09:02:16.683Z,42.93
2019-01-23T09:07:20.432Z,41.10
2019-01-23T09:12:24.250Z,43.43
2019-01-23T09:17:28.064Z,43.10
2019-01-23T09:22:31.953Z,43.70
2019-01-23T09:27:36.125Z,44.70
2019-01-23T09:33:19.758Z,44.10
2019-01-23T09:39:09.941Z,44.77
2019-01-23T09:45:01.144Z,43.03
2019-01-23T09:50:37.943Z,42.53
2019-01-23T09:55:45.512Z,43.20
2019-01-23T10:00:49.268Z,45.00
2019-01-23T10:05:52.982Z,46.97
2019-01-23T10:10:56.624Z,44.47
2019-01-23T10:16:05.007Z,42.80
2019-01-23T10:21:08.811Z,44.30
2019-01-23T10:26:12.595Z,42.60
2019-01-23T10:31:16.428Z,42.10
2019-01-23T10:36:20.337Z,42.23
2019-01-23T10:41:24.081Z,39.83
2019-01-23T10:46:27.885Z,39.27
2019-01-23T10:51:31.669Z,39.60
2019-01-23T10:56:35.378Z,38.97
2019-01-23T11:01:39.378Z,41.40
2019-01-23T11:06:43.095Z,44.27
2019-01-23T11:11:46.919Z,45.20
2019-01-23T11:16:51.076Z,46.63
2019-01-23T11:21:55.022Z,44.77
2019-01-23T11:26:58.791Z,46.53
2019-01-23T11:32:02.606Z,40.20
2019-01-23T11:37:06.341Z,45.30
2019-01-23T11:42:10.059Z,43.17
2019-01-23T11:47:13.917Z,43.27
2019-01-23T11:52:17.733Z,44.37
2019-01-23T11:57:21.557Z,42.40
2019-01-23T12:02:30.771Z,39.30
2019-01-23T12:07:30.835Z,42.17
2019-01-23T12:12:34.602Z,42.57
2019-01-23T12:17:38.266Z,41.80
2019-01-23T12:22:41.961Z,40.17
2019-01-23T12:27:46.029Z,41.80
2019-01-23T12:32:49.822Z,39.60
2019-01-23T12:37:53.557Z,41.00
2019-01-23T12:42:57.320Z,36.60
2019-01-23T12:48:02.174Z,37.97
2019-01-23T12:53:06.083Z,39.73
2019-01-23T12:58:10.006Z,43.00
2019-01-23T13:03:14.699Z,41.30
2019-01-23T13:08:18.436Z,39.17
2019-01-23T13:13:22.428Z,39.90
2019-01-23T13:18:26.220Z,37.90
2019-01-23T13:23:32.006Z,38.13
2019-01-23T13:28:37.010Z,38.57
2019-01-23T13:33:40.925Z,41.07
2019-01-23T13:38:44.774Z,41.07
2019-01-23T13:43:48.699Z,41.20
2019-01-23T13:48:52.647Z,40.93
2019-01-23T13:53:56.526Z,37.80
2019-01-23T13:59:00.415Z,38.90
2019-01-23T14:04:04.252Z,39.47
2019-01-23T14:09:08.120Z,37.87
2019-01-23T14:14:12.092Z,38.07
2019-01-23T14:19:15.908Z,41.47
2019-01-23T14:24:19.627Z,39.37
2019-01-23T14:29:23.394Z,39.67
2019-01-23T14:34:27.235Z,38.40
2019-01-23T14:39:31.108Z,39.97
2019-01-23T14:44:35.106Z,40.10
2019-01-23T14:49:38.868Z,36.77
2019-01-23T14:54:42.615Z,35.90
2019-01-23T14:59:46.403Z,35.13
2019-01-23T15:04:50.286Z,33.43
2019-01-23T15:09:54.059Z,35.60
2019-01-23T15:14:57.909Z,37.50
2019-01-23T15:20:01.753Z,35.57
2019-01-23T15:25:05.919Z,38.53
2019-01-23T15:30:11.117Z,37.00
2019-01-23T15:35:14.901Z,36.57
2019-01-23T15:40:21.248Z,34.80
2019-01-23T15:45:24.964Z,35.80
2019-01-23T15:50:30.312Z,36.43
2019-01-23T15:55:34.074Z,35.20
2019-01-23T16:00:37.925Z,34.93
2019-01-23T16:05:42.203Z,36.37
2019-01-23T16:10:45.977Z,35.73
2019-01-23T16:15:49.810Z,34.93
2019-01-23T16:20:53.642Z,35.73
2019-01-23T16:25:57.558Z,36.73
2019-01-23T16:31:01.494Z,36.20
2019-01-23T16:36:05.318Z,30.83
2019-01-23T16:41:09.114Z,34.03
2019-01-23T16:46:12.902Z,34.10
2019-01-23T16:51:16.992Z,34.30
2019-01-23T16:56:20.706Z,33.93
2019-01-23T17:01:24.587Z,31.77
2019-01-23T17:06:28.537Z,33.10
2019-01-23T17:11:32.314Z,32.80
2019-01-23T17:16:36.140Z,34.73
2019-01-23T17:21:46.729Z,35.20
2019-01-23T17:26:50.509Z,37.40
2019-01-23T17:31:54.321Z,36.47
2019-01-23T17:36:58.246Z,38.27
2019-01-23T17:42:02.350Z,38.87
2019-01-23T17:47:06.155Z,38.73
2019-01-23T17:52:10.190Z,40.57
2019-01-23T17:57:13.984Z,38.80
2019-01-23T18:02:20.637Z,35.67
2019-01-23T18:07:24.338Z,35.23
2019-01-23T18:12:30.659Z,32.47
2019-01-23T18:17:34.407Z,37.03
2019-01-23T18:22:38.200Z,34.90
2019-01-23T18:27:42.025Z,33.50
2019-01-23T18:32:46.079Z,33.00
2019-01-23T18:38:19.333Z,32.70
2019-01-23T18:43:45.182Z,33.87
2019-01-23T18:50:03.957Z,33.10
2019-01-23T18:55:10.148Z,34.57
2019-01-23T19:00:16.842Z,33.60
2019-01-23T19:05:20.623Z,35.60
2019-01-23T19:10:24.474Z,33.33
2019-01-23T19:15:28.238Z,35.10
2019-01-23T19:20:32.098Z,33.90
2019-01-23T19:25:36.354Z,32.10
2019-01-23T19:30:40.247Z,32.97
2019-01-23T19:35:45.739Z,33.43
2019-01-23T19:40:50.024Z,32.30
2019-01-23T19:45:54.210Z,30.83
2019-01-23T19:50:58.088Z,29.90
2019-01-23T19:56:01.812Z,30.00
2019-01-23T20:01:05.616Z,29.30
2019-01-23T20:06:09.368Z,31.50
2019-01-23T20:11:13.588Z,28.43
2019-01-23T20:16:17.526Z,29.73
2019-01-23T20:21:22.505Z,31.10
2019-01-23T20:26:26.283Z,30.67
2019-01-23T20:31:30.104Z,29.53
2019-01-23T20:36:33.831Z,30.20
2019-01-23T20:41:37.737Z,30.57
2019-01-23T20:46:41.778Z,30.43
2019-01-23T20:51:45.664Z,30.07
2019-01-23T20:56:49.402Z,30.73
2019-01-23T21:01:53.372Z,29.40
2019-01-23T21:06:57.149Z,30.30
2019-01-23T21:12:01.061Z,33.93
2019-01-23T21:17:04.818Z,37.57
2019-01-23T21:22:15.802Z,40.60
2019-01-23T21:27:19.542Z,40.20
2019-01-23T21:32:23.455Z,37.13
2019-01-23T21:37:27.315Z,35.37
2019-01-23T21:42:33.823Z,34.80
2019-01-23T21:47:38.872Z,36.10
2019-01-23T21:52:42.577Z,35.83
2019-01-23T21:57:46.344Z,35.53
2019-01-23T22:02:50.277Z,41.00
2019-01-23T22:07:54.119Z,43.50
2019-01-23T22:13:00.371Z,45.20
2019-01-23T22:18:05.108Z,43.60
2019-01-23T22:23:09.204Z,42.27
2019-01-23T22:28:13.411Z,42.37
2019-01-23T22:33:17.128Z,38.07
2019-01-23T22:38:21.080Z,36.17
2019-01-23T22:43:25.085Z,37.93
2019-01-23T22:48:28.799Z,32.30
2019-01-23T22:53:34.605Z,35.83
2019-01-23T22:58:38.306Z,38.63
2019-01-23T23:03:42.020Z,35.80
2019-01-23T23:08:45.853Z,36.00
2019-01-23T23:13:49.604Z,33.73
2019-01-23T23:18:53.665Z,30.40
2019-01-23T23:23:57.381Z,27.97
2019-01-23T23:29:01.236Z,27.67
2019-01-23T23:34:09.949Z,27.13
2019-01-23T23:39:10.987Z,28.33
2019-01-23T23:44:14.857Z,26.83
2019-01-23T23:49:18.703Z,25.93
2019-01-23T23:54:22.585Z,25.23
2019-01-23T23:59:26.763Z,25.77
